createdAt,value
2023-05-18T00:01:11.520Z,6.23
2023-05-18T00:05:13.072Z,6.06
2023-05-18T00:09:15.970Z,5.88
2023-05-18T00:13:17.496Z,5.75
2023-05-18T00:17:19.041Z,5.65
2023-05-18T00:21:20.586Z,5.56
2023-05-18T00:25:23.503Z,5.51
2023-05-18T00:29:25.051Z,5.42
2023-05-18T00:33:26.635Z,5.52
2023-05-18T00:37:28.160Z,5.46
2023-05-18T00:41:31.400Z,5.36
2023-05-18T00:45:33.170Z,5.32
2023-05-18T00:49:35.082Z,5.13
2023-05-18T00:53:37.089Z,5.03
2023-05-18T00:57:40.135Z,4.93
2023-05-18T01:01:42.014Z,4.89
2023-05-18T01:05:43.619Z,4.83
2023-05-18T01:09:45.220Z,4.75
2023-05-18T01:14:01.941Z,4.64
2023-05-18T01:18:11.263Z,4.59
2023-05-18T01:22:32.693Z,4.59
2023-05-18T01:26:41.212Z,4.44
2023-05-18T01:30:43.540Z,4.37
2023-05-18T01:34:45.124Z,4.40
2023-05-18T01:38:47.194Z,4.43
2023-05-18T01:42:56.162Z,4.41
2023-05-18T01:47:00.515Z,4.35
2023-05-18T01:51:02.536Z,4.30
2023-05-18T01:55:06.751Z,4.25
2023-05-18T01:59:10.826Z,4.30
2023-05-18T02:03:12.825Z,4.19
2023-05-18T02:07:14.408Z,4.16
2023-05-18T02:11:15.923Z,4.07
2023-05-18T02:15:19.214Z,3.95
2023-05-18T02:19:21.806Z,3.94
2023-05-18T02:23:23.386Z,3.88
2023-05-18T02:27:25.053Z,3.77
2023-05-18T02:31:27.934Z,3.73
2023-05-18T02:35:29.752Z,3.72
2023-05-18T02:39:31.462Z,3.80
2023-05-18T02:43:32.990Z,3.73
2023-05-18T02:47:35.936Z,3.64
2023-05-18T02:51:37.571Z,3.57
2023-05-18T02:55:39.097Z,3.52
2023-05-18T02:59:40.644Z,3.47
2023-05-18T03:03:43.556Z,3.42
2023-05-18T03:07:45.132Z,3.47
2023-05-18T03:11:46.681Z,3.43
2023-05-18T03:15:48.251Z,3.40
2023-05-18T03:19:51.156Z,3.43
2023-05-18T03:23:52.697Z,3.39
2023-05-18T03:27:54.261Z,3.46
2023-05-18T03:31:55.845Z,3.43
2023-05-18T03:36:03.252Z,3.51
2023-05-18T03:40:13.031Z,3.46
2023-05-18T03:44:14.561Z,3.45
2023-05-18T03:48:16.079Z,3.54
2023-05-18T03:52:18.979Z,3.53
2023-05-18T03:56:20.508Z,3.55
2023-05-18T04:00:22.083Z,3.57
2023-05-18T04:04:23.838Z,3.60
2023-05-18T04:08:27.100Z,3.76
2023-05-18T04:12:28.629Z,3.85
2023-05-18T04:16:30.228Z,4.10
2023-05-18T04:20:31.804Z,4.18
2023-05-18T04:24:34.969Z,4.35
2023-05-18T04:28:36.789Z,4.44
2023-05-18T04:32:39.050Z,4.66
2023-05-18T04:36:40.655Z,4.76
2023-05-18T04:40:43.541Z,4.87
2023-05-18T04:44:45.071Z,5.16
2023-05-18T04:48:46.590Z,5.23
2023-05-18T04:52:49.921Z,5.37
2023-05-18T04:56:53.044Z,5.35
2023-05-18T05:00:54.609Z,5.46
2023-05-18T05:04:56.179Z,5.65
2023-05-18T05:08:57.704Z,5.91
2023-05-18T05:13:00.643Z,6.05
2023-05-18T05:17:02.175Z,6.07
2023-05-18T05:21:03.743Z,6.30
2023-05-18T05:25:06.416Z,6.49
2023-05-18T05:29:09.344Z,6.69
2023-05-18T05:33:10.940Z,6.93
2023-05-18T05:37:12.820Z,6.98
2023-05-18T05:41:14.804Z,7.10
2023-05-18T05:45:17.709Z,7.57
2023-05-18T05:49:19.237Z,7.52
2023-05-18T05:53:20.777Z,7.59
2023-05-18T05:57:22.304Z,7.63
2023-05-18T06:01:25.202Z,7.94
2023-05-18T06:05:26.823Z,8.22
2023-05-18T06:09:28.346Z,8.22
2023-05-18T06:13:29.883Z,8.56
2023-05-18T06:17:32.845Z,8.63
2023-05-18T06:21:34.489Z,8.66
2023-05-18T06:25:36.056Z,8.83
2023-05-18T06:29:37.696Z,8.76
2023-05-18T06:33:40.663Z,9.03
2023-05-18T06:37:42.185Z,9.20
2023-05-18T06:41:43.989Z,9.21
2023-05-18T06:45:46.242Z,9.49
2023-05-18T06:49:49.180Z,9.53
2023-05-18T06:53:50.766Z,9.61
2023-05-18T06:57:52.364Z,9.68
2023-05-18T07:01:54.071Z,9.64
2023-05-18T07:05:57.090Z,9.53
2023-05-18T07:09:58.597Z,9.78
2023-05-18T07:14:00.204Z,9.65
2023-05-18T07:18:03.895Z,9.91
2023-05-18T07:22:06.843Z,10.07
2023-05-18T07:26:08.385Z,10.12
2023-05-18T07:30:10.721Z,10.66
2023-05-18T07:34:12.266Z,10.49
2023-05-18T07:38:15.227Z,10.57
2023-05-18T07:42:16.747Z,10.59
2023-05-18T07:46:18.745Z,10.47
2023-05-18T07:50:20.644Z,10.33
2023-05-18T07:54:23.942Z,10.80
2023-05-18T07:58:25.562Z,10.50
2023-05-18T08:02:27.170Z,10.71
2023-05-18T08:06:28.820Z,10.81
2023-05-18T08:10:31.695Z,10.98
2023-05-18T08:14:33.232Z,10.41
2023-05-18T08:18:34.860Z,10.54
2023-05-18T08:22:36.465Z,10.74
2023-05-18T08:26:39.372Z,10.39
2023-05-18T08:30:41.395Z,10.19
2023-05-18T08:34:42.961Z,10.81
2023-05-18T08:38:44.490Z,10.79
2023-05-18T08:43:00.359Z,10.49
2023-05-18T08:47:03.634Z,10.65
2023-05-18T08:51:08.502Z,10.37
2023-05-18T08:55:12.296Z,10.64
2023-05-18T08:59:19.030Z,10.83
2023-05-18T09:03:22.001Z,11.23
2023-05-18T09:07:23.830Z,11.15
2023-05-18T09:11:27.218Z,11.43
2023-05-18T09:15:30.388Z,11.40
2023-05-18T09:19:32.215Z,11.66
2023-05-18T09:23:34.017Z,11.89
2023-05-18T09:27:35.565Z,11.99
2023-05-18T09:31:38.585Z,12.34
2023-05-18T09:35:40.216Z,13.04
2023-05-18T09:39:42.155Z,12.04
2023-05-18T09:43:44.474Z,12.30
2023-05-18T09:47:50.648Z,12.15
2023-05-18T09:51:52.764Z,12.67
2023-05-18T09:55:54.364Z,12.15
2023-05-18T09:59:56.524Z,12.48
2023-05-18T10:04:04.240Z,12.67
2023-05-18T10:08:05.861Z,13.56
2023-05-18T10:12:11.271Z,12.67
2023-05-18T10:16:12.943Z,13.16
2023-05-18T10:20:18.057Z,12.92
2023-05-18T10:24:21.379Z,12.77
2023-05-18T10:28:26.429Z,12.92
2023-05-18T10:32:29.999Z,13.33
2023-05-18T10:36:34.498Z,13.32
2023-05-18T10:40:36.829Z,13.09
2023-05-18T10:44:39.904Z,13.39
2023-05-18T10:48:47.494Z,12.85
2023-05-18T10:52:53.188Z,12.93
2023-05-18T10:56:54.849Z,13.24
2023-05-18T11:00:58.616Z,13.94
2023-05-18T11:05:00.391Z,13.85
2023-05-18T11:09:03.799Z,13.68
2023-05-18T11:13:05.478Z,13.76
2023-05-18T11:17:21.583Z,14.06
2023-05-18T11:21:31.370Z,14.10
2023-05-18T11:25:48.586Z,14.53
2023-05-18T11:29:57.721Z,13.66
2023-05-18T11:34:35.481Z,13.77
2023-05-18T11:38:47.956Z,14.21
2023-05-18T11:42:58.185Z,14.58
2023-05-18T11:47:01.480Z,14.12
2023-05-18T11:51:03.178Z,14.42
2023-05-18T11:55:05.490Z,14.88
2023-05-18T11:59:14.628Z,14.44
2023-05-18T12:03:17.320Z,14.60
2023-05-18T12:07:19.782Z,14.39
2023-05-18T12:11:21.498Z,14.87
2023-05-18T12:15:25.071Z,14.58
2023-05-18T12:19:26.956Z,15.32
2023-05-18T12:23:35.753Z,14.53
2023-05-18T12:27:38.399Z,14.27
2023-05-18T12:31:41.532Z,15.55
2023-05-18T12:35:43.184Z,14.82
2023-05-18T12:39:44.719Z,15.01
2023-05-18T12:43:46.666Z,14.90
2023-05-18T12:47:50.072Z,14.06
2023-05-18T12:51:55.162Z,15.00
2023-05-18T12:55:56.936Z,14.65
2023-05-18T12:59:58.511Z,15.19
2023-05-18T13:04:01.544Z,15.54
2023-05-18T13:08:03.166Z,17.23
2023-05-18T13:12:07.975Z,17.19
2023-05-18T13:16:16.030Z,15.71
2023-05-18T13:20:18.965Z,15.88
2023-05-18T13:24:20.617Z,15.68
2023-05-18T13:28:22.683Z,15.52
2023-05-18T13:32:24.240Z,15.60
2023-05-18T13:36:27.168Z,15.94
2023-05-18T13:40:28.871Z,15.98
2023-05-18T13:44:30.415Z,15.94
2023-05-18T13:48:32.031Z,15.32
2023-05-18T13:52:35.078Z,15.02
2023-05-18T13:56:36.650Z,14.97
2023-05-18T14:00:38.222Z,15.75
2023-05-18T14:04:39.757Z,14.74
2023-05-18T14:08:42.646Z,14.76
2023-05-18T14:12:44.589Z,15.42
2023-05-18T14:16:46.369Z,14.95
2023-05-18T14:20:47.921Z,14.81
2023-05-18T14:24:50.799Z,14.73
2023-05-18T14:28:52.332Z,13.99
2023-05-18T14:32:53.966Z,15.31
2023-05-18T14:36:55.543Z,15.59
2023-05-18T14:40:58.449Z,16.32
2023-05-18T14:44:59.973Z,16.04
2023-05-18T14:49:01.730Z,16.79
2023-05-18T14:53:03.318Z,17.06
2023-05-18T14:57:06.295Z,19.54
2023-05-18T15:01:07.856Z,17.75
2023-05-18T15:05:09.956Z,18.45
2023-05-18T15:09:11.507Z,17.06
2023-05-18T15:13:14.411Z,17.19
2023-05-18T15:17:16.149Z,15.71
2023-05-18T15:21:17.670Z,15.69
2023-05-18T15:25:19.480Z,16.71
2023-05-18T15:29:22.371Z,16.97
2023-05-18T15:33:23.913Z,18.23
2023-05-18T15:37:25.476Z,19.00
2023-05-18T15:41:27.050Z,19.33
2023-05-18T15:45:29.999Z,18.64
2023-05-18T15:49:31.582Z,16.70
2023-05-18T15:53:33.155Z,15.70
2023-05-18T15:57:34.728Z,15.56
2023-05-18T16:01:37.749Z,15.09
2023-05-18T16:05:39.564Z,14.81
2023-05-18T16:09:41.265Z,14.55
2023-05-18T16:13:42.940Z,14.44
2023-05-18T16:17:46.013Z,14.41
2023-05-18T16:21:47.690Z,13.76
2023-05-18T16:25:49.337Z,13.86
2023-05-18T16:29:51.059Z,14.28
2023-05-18T16:33:54.266Z,14.75
2023-05-18T16:37:55.964Z,15.38
2023-05-18T16:41:57.770Z,15.01
2023-05-18T16:45:59.732Z,15.14
2023-05-18T16:50:02.857Z,14.94
2023-05-18T16:54:04.450Z,15.43
2023-05-18T16:58:06.030Z,16.06
2023-05-18T17:02:07.834Z,16.04
2023-05-18T17:06:10.770Z,16.09
2023-05-18T17:10:12.349Z,14.73
2023-05-18T17:14:13.950Z,14.14
2023-05-18T17:18:15.582Z,14.05
2023-05-18T17:22:18.522Z,13.86
2023-05-18T17:26:20.104Z,13.67
2023-05-18T17:30:21.679Z,13.49
2023-05-18T17:34:23.453Z,13.34
2023-05-18T17:38:26.385Z,13.14
2023-05-18T17:42:27.934Z,13.05
2023-05-18T17:46:29.924Z,12.98
2023-05-18T17:50:31.808Z,12.88
2023-05-18T17:54:34.910Z,12.79
2023-05-18T17:58:36.502Z,12.71
2023-05-18T18:02:38.133Z,12.70
2023-05-18T18:06:39.858Z,12.68
2023-05-18T18:10:42.767Z,12.60
2023-05-18T18:14:44.346Z,12.54
2023-05-18T18:18:46.075Z,12.41
2023-05-18T18:22:47.644Z,12.32
2023-05-18T18:26:50.602Z,12.25
2023-05-18T18:30:52.379Z,12.26
2023-05-18T18:34:53.932Z,12.15
2023-05-18T18:38:55.512Z,12.00
2023-05-18T18:42:58.476Z,12.04
2023-05-18T18:47:00.030Z,11.96
2023-05-18T18:51:01.624Z,11.88
2023-05-18T18:55:03.251Z,11.84
2023-05-18T18:59:06.203Z,11.67
2023-05-18T19:03:07.778Z,11.61
2023-05-18T19:07:09.331Z,11.46
2023-05-18T19:11:10.896Z,11.34
2023-05-18T19:15:14.257Z,11.24
2023-05-18T19:19:15.801Z,11.14
2023-05-18T19:23:17.396Z,11.13
2023-05-18T19:27:19.314Z,11.20
2023-05-18T19:31:22.401Z,11.18
2023-05-18T19:35:24.041Z,11.14
2023-05-18T19:39:25.609Z,11.04
2023-05-18T19:43:27.122Z,10.98
2023-05-18T19:47:30.131Z,10.92
2023-05-18T19:51:31.798Z,10.83
2023-05-18T19:55:33.438Z,10.79
2023-05-18T19:59:35.090Z,10.66
2023-05-18T20:03:39.600Z,10.61
2023-05-18T20:07:43.128Z,10.49
2023-05-18T20:11:44.661Z,10.47
2023-05-18T20:15:46.195Z,10.39
2023-05-18T20:19:49.180Z,10.24
2023-05-18T20:23:50.777Z,10.03
2023-05-18T20:27:52.456Z,9.77
2023-05-18T20:31:54.083Z,9.82
2023-05-18T20:35:57.147Z,9.81
2023-05-18T20:39:58.730Z,9.75
2023-05-18T20:44:00.307Z,9.68
2023-05-18T20:48:01.966Z,9.55
2023-05-18T20:52:05.556Z,9.46
2023-05-18T20:56:07.146Z,9.37
2023-05-18T21:00:09.497Z,9.40
2023-05-18T21:04:12.709Z,9.21
2023-05-18T21:08:16.291Z,9.09
2023-05-18T21:12:17.948Z,9.11
2023-05-18T21:16:19.971Z,9.02
2023-05-18T21:20:21.820Z,8.97
2023-05-18T21:24:24.882Z,8.96
2023-05-18T21:28:26.549Z,8.91
2023-05-18T21:32:28.327Z,8.79
2023-05-18T21:36:30.178Z,8.72
2023-05-18T21:40:33.288Z,8.62
2023-05-18T21:44:35.101Z,8.55
2023-05-18T21:48:36.647Z,8.40
2023-05-18T21:52:38.213Z,8.40
2023-05-18T21:56:41.800Z,8.31
2023-05-18T22:00:43.388Z,8.27
2023-05-18T22:04:45.099Z,8.25
2023-05-18T22:08:46.715Z,8.06
2023-05-18T22:12:49.626Z,7.95
2023-05-18T22:16:51.235Z,8.11
2023-05-18T22:20:52.827Z,8.15
2023-05-18T22:24:54.376Z,8.15
2023-05-18T22:28:57.314Z,8.14
2023-05-18T22:32:58.959Z,8.12
2023-05-18T22:37:00.659Z,8.19
2023-05-18T22:41:02.201Z,8.13
2023-05-18T22:45:06.414Z,8.07
2023-05-18T22:49:08.165Z,8.10
2023-05-18T22:53:09.815Z,8.00
2023-05-18T22:57:11.696Z,7.95
2023-05-18T23:01:14.625Z,7.98
2023-05-18T23:05:16.264Z,8.09
2023-05-18T23:09:17.958Z,8.20
2023-05-18T23:13:19.493Z,8.28
2023-05-18T23:17:22.649Z,8.28
2023-05-18T23:21:24.219Z,8.23
2023-05-18T23:25:25.780Z,8.19
2023-05-18T23:29:27.447Z,8.04
2023-05-18T23:33:31.278Z,8.00
2023-05-18T23:37:33.177Z,8.00
2023-05-18T23:41:36.386Z,7.99
2023-05-18T23:45:38.636Z,7.95
2023-05-18T23:49:42.253Z,7.94
2023-05-18T23:53:44.684Z,7.95
2023-05-18T23:57:46.810Z,7.95
